Time;durP1;ratioP1;P1;durP2;ratioP2;P2;SDS_P1;SDS_P2;PMS_P1;PMS_P2;Temp;Humidity;BMP_temperature;BMP_pressure;BME280_temperature;BME280_humidity;BME280_pressure;Samples;Min_cycle;Max_cycle;Signal;HPM_P1;HPM_P2
2022/01/12 00:01:00;;;;;;;29.70;16.05;;;3.90;99.90;;;;;;4953292;28;20470;-74
2022/01/12 00:03:26;;;;;;;25.15;15.75;;;3.80;99.90;;;;;;4950892;28;20497;-74
2022/01/12 00:05:53;;;;;;;23.65;12.50;;;3.80;99.90;;;;;;4950036;28;20035;-74
2022/01/12 00:08:19;;;;;;;25.08;14.80;;;3.80;99.90;;;;;;4951226;28;20355;-75
2022/01/12 00:10:46;;;;;;;26.15;15.38;;;3.80;99.90;;;;;;4949214;28;20022;-74
2022/01/12 00:13:12;;;;;;;23.85;15.15;;;3.80;99.90;;;;;;4946850;28;20398;-74
2022/01/12 00:15:38;;;;;;;31.45;16.20;;;3.90;99.90;;;;;;4952530;28;20027;-74
2022/01/12 00:18:05;;;;;;;26.93;14.37;;;3.80;99.90;;;;;;4934565;28;20042;-74
2022/01/12 00:20:31;;;;;;;29.80;16.57;;;3.80;99.90;;;;;;4953646;28;20035;-76
2022/01/12 00:22:58;;;;;;;27.08;15.80;;;3.80;99.90;;;;;;4932596;28;20031;-73
2022/01/12 00:25:29;;;;;;;28.90;16.73;;;3.80;99.90;;;;;;4950038;28;20093;-74
2022/01/12 00:33:33;;;;;;;29.45;15.50;;;3.80;99.90;;;;;;4949870;28;20046;-76
2022/01/12 00:35:59;;;;;;;30.40;17.35;;;3.80;99.90;;;;;;4950907;28;20038;-76
2022/01/12 00:38:29;;;;;;;32.88;17.08;;;3.80;99.90;;;;;;4954036;28;20501;-76
2022/01/12 00:40:59;;;;;;;32.63;18.08;;;3.80;99.90;;;;;;4955521;28;20577;-76
2022/01/12 00:43:28;;;;;;;31.42;16.98;;;3.70;99.90;;;;;;4937704;28;20027;-76
2022/01/12 00:45:56;;;;;;;36.60;19.20;;;3.70;99.90;;;;;;4955367;28;20042;-76
2022/01/12 00:48:23;;;;;;;30.90;18.10;;;3.70;99.90;;;;;;4954585;28;20487;-76
2022/01/12 00:50:50;;;;;;;33.28;19.42;;;3.70;99.90;;;;;;4954727;28;20026;-76
2022/01/12 00:53:16;;;;;;;27.30;16.80;;;3.70;99.90;;;;;;4951610;28;20023;-75
2022/01/12 00:55:43;;;;;;;32.25;18.90;;;3.70;99.90;;;;;;4954557;28;20035;-76
2022/01/12 00:58:10;;;;;;;34.13;20.13;;;3.70;99.90;;;;;;4956509;28;20031;-75
2022/01/12 01:00:37;;;;;;;33.03;20.50;;;3.70;99.90;;;;;;4955408;28;20142;-75
2022/01/12 01:03:03;;;;;;;30.00;17.38;;;3.60;99.90;;;;;;4934753;28;20038;-76
2022/01/12 01:05:32;;;;;;;26.67;15.83;;;3.70;99.90;;;;;;4950840;28;20038;-75
2022/01/12 01:07:59;;;;;;;30.23;17.17;;;3.70;99.90;;;;;;4950841;28;20031;-76
2022/01/12 01:10:45;;;;;;;30.65;19.00;;;3.70;99.90;;;;;;4953413;28;20039;-75
2022/01/12 01:13:22;;;;;;;30.23;18.33;;;3.70;99.90;;;;;;4950165;28;20023;-76
2022/01/12 01:26:42;;;;;;;30.65;19.17;;;3.70;99.90;;;;;;4953019;28;20414;-76
2022/01/12 01:29:09;;;;;;;37.17;20.67;;;3.70;99.90;;;;;;4951979;28;20394;-76
2022/01/12 01:31:38;;;;;;;41.20;23.33;;;3.60;99.90;;;;;;4952138;28;20047;-76
2022/01/12 01:34:10;;;;;;;40.63;22.50;;;3.70;99.90;;;;;;4950400;28;20037;-76
2022/01/12 01:36:51;;;;;;;38.83;22.15;;;3.70;99.90;;;;;;4952906;28;20038;-76
2022/01/12 01:39:23;;;;;;;37.90;23.27;;;3.70;99.90;;;;;;4953545;28;20027;-76
2022/01/12 01:42:06;;;;;;;39.08;20.98;;;3.70;99.90;;;;;;4936166;28;20394;-76
2022/01/12 01:55:31;;;;;;;44.03;24.85;;;3.70;99.90;;;;;;4952018;28;20030;-76
2022/01/12 01:57:58;;;;;;;50.92;27.60;;;3.70;99.90;;;;;;4953692;28;20034;-76
2022/01/12 02:00:27;;;;;;;46.70;25.40;;;3.70;99.90;;;;;;4937014;28;20027;-76
2022/01/12 02:03:01;;;;;;;44.15;24.05;;;3.70;99.90;;;;;;4948645;28;20459;-76
2022/01/12 02:05:49;;;;;;;42.70;24.48;;;3.70;99.90;;;;;;4953749;28;20022;-76
2022/01/12 02:08:17;;;;;;;50.22;26.25;;;3.70;99.90;;;;;;4953137;28;20035;-76
2022/01/12 02:11:06;;;;;;;41.72;24.23;;;3.70;99.90;;;;;;4926073;28;20094;-77
2022/01/12 02:13:34;;;;;;;46.55;24.90;;;3.70;99.90;;;;;;4930631;28;20031;-76
2022/01/12 02:16:01;;;;;;;45.17;24.50;;;3.80;99.90;;;;;;4920845;28;20039;-76
2022/01/12 02:40:23;;;;;;;56.45;26.60;;;3.80;99.90;;;;;;4952165;28;20050;-76
2022/01/12 02:43:01;;;;;;;54.40;28.10;;;3.80;99.90;;;;;;4950054;28;20046;-77
2022/01/12 02:51:11;;;;;;;37.60;21.03;;;3.80;99.90;;;;;;4955598;28;20043;-76
2022/01/12 02:53:40;;;;;;;51.08;26.45;;;3.80;99.90;;;;;;4948678;28;20033;-76
2022/01/12 02:56:12;;;;;;;43.78;23.65;;;3.80;99.90;;;;;;4950982;28;20039;-76
2022/01/12 02:58:40;;;;;;;41.25;22.27;;;3.80;99.90;;;;;;4954302;28;20467;-76
2022/01/12 03:03:37;;;;;;;42.08;22.10;;;3.80;99.90;;;;;;4951899;28;20031;-77
2022/01/12 03:06:06;;;;;;;48.43;26.00;;;3.90;99.90;;;;;;4952582;28;20022;-76
2022/01/12 03:08:36;;;;;;;52.63;28.15;;;3.90;99.90;;;;;;4952266;28;20023;-76
2022/01/12 03:11:05;;;;;;;59.20;27.70;;;3.90;99.90;;;;;;4966874;28;20034;-77
2022/01/12 03:13:35;;;;;;;46.00;24.13;;;3.90;99.90;;;;;;4946613;28;20027;-76
2022/01/12 03:16:17;;;;;;;55.23;28.07;;;3.80;99.90;;;;;;4948391;28;20050;-76
2022/01/12 03:18:49;;;;;;;53.33;26.95;;;3.90;99.90;;;;;;4932669;28;20749;-76
2022/01/12 03:21:18;;;;;;;49.40;25.75;;;3.80;99.90;;;;;;4967718;28;20030;-76
2022/01/12 03:23:45;;;;;;;55.87;26.43;;;3.80;99.90;;;;;;4934043;28;20031;-76
2022/01/12 03:26:11;;;;;;;50.20;23.73;;;3.90;99.90;;;;;;4935674;28;20023;-76
2022/01/12 03:28:39;;;;;;;48.90;24.20;;;3.90;99.90;;;;;;4953160;28;20038;-76
2022/01/12 03:38:49;;;;;;;50.63;25.77;;;3.90;99.90;;;;;;4952484;28;20023;-76
2022/01/12 03:41:17;;;;;;;49.60;25.67;;;3.90;99.90;;;;;;4951646;28;20073;-76
2022/01/12 03:43:44;;;;;;;53.17;25.48;;;3.90;99.90;;;;;;4947876;28;20042;-76
2022/01/12 03:46:16;;;;;;;47.35;24.27;;;3.90;99.90;;;;;;4948953;28;20046;-76
2022/01/12 03:48:43;;;;;;;51.55;25.30;;;3.90;99.90;;;;;;4949003;28;20027;-76
2022/01/12 03:51:09;;;;;;;49.13;24.53;;;3.90;99.90;;;;;;4934369;28;20030;-76
2022/01/12 03:53:36;;;;;;;45.97;24.47;;;3.90;99.90;;;;;;4948747;28;20042;-76
2022/01/12 03:56:03;;;;;;;46.97;23.70;;;3.90;99.90;;;;;;4949237;28;20035;-76
2022/01/12 03:58:31;;;;;;;50.63;25.43;;;3.90;99.90;;;;;;4936221;28;20035;-76
2022/01/12 04:00:58;;;;;;;45.72;24.40;;;3.90;99.90;;;;;;4953649;28;20022;-76
2022/01/12 04:03:26;;;;;;;43.72;22.83;;;3.90;99.90;;;;;;4949705;28;20035;-76
2022/01/12 04:08:23;;;;;;;50.58;26.05;;;3.90;99.90;;;;;;4936608;28;20491;-76
2022/01/12 04:10:55;;;;;;;49.67;26.33;;;3.90;99.90;;;;;;4953511;28;20509;-76
2022/01/12 04:13:26;;;;;;;50.55;25.52;;;3.90;99.90;;;;;;4951561;28;20027;-76
2022/01/12 04:15:58;;;;;;;47.03;24.50;;;3.90;99.90;;;;;;4957515;28;20027;-76
2022/01/12 04:18:25;;;;;;;48.35;28.02;;;3.90;99.90;;;;;;4961146;28;20030;-76
2022/01/12 04:20:52;;;;;;;47.63;24.73;;;3.90;99.90;;;;;;4957503;28;20450;-76
2022/01/12 04:23:22;;;;;;;49.90;25.75;;;3.90;99.90;;;;;;4957653;28;20031;-76
2022/01/12 04:25:51;;;;;;;44.55;23.60;;;3.90;99.90;;;;;;4936101;28;20031;-76
2022/01/12 04:28:19;;;;;;;45.72;23.25;;;3.90;99.90;;;;;;4958107;28;20340;-76
2022/01/12 04:30:47;;;;;;;48.28;26.25;;;4.00;99.90;;;;;;4957091;28;20040;-73
2022/01/12 04:33:14;;;;;;;49.60;27.63;;;4.00;99.90;;;;;;4952823;28;20046;-73
2022/01/12 04:35:49;;;;;;;49.40;27.45;;;4.00;99.90;;;;;;4952105;28;20034;-73
2022/01/12 04:38:17;;;;;;;43.67;24.42;;;4.00;99.90;;;;;;4936139;28;20310;-72
2022/01/12 04:40:46;;;;;;;49.10;26.42;;;4.00;99.90;;;;;;4938126;28;20049;-72
2022/01/12 04:43:13;;;;;;;51.35;27.58;;;4.00;99.90;;;;;;4952225;28;20035;-73
2022/01/12 04:46:23;;;;;;;46.53;25.75;;;4.00;99.90;;;;;;4953261;28;20034;-73
2022/01/12 04:51:43;;;;;;;48.33;24.45;;;4.00;99.90;;;;;;4953167;28;20038;-73
2022/01/12 04:54:10;;;;;;;50.97;27.40;;;3.90;99.90;;;;;;4916125;28;20390;-73
2022/01/12 04:56:37;;;;;;;54.22;27.13;;;3.90;99.90;;;;;;4931118;28;20483;-73
2022/01/12 04:59:04;;;;;;;55.47;26.25;;;3.90;99.90;;;;;;4953685;28;20057;-73
2022/01/12 05:01:36;;;;;;;45.17;23.77;;;4.00;99.90;;;;;;4956315;28;20355;-73
2022/01/12 05:07:08;;;;;;;48.57;27.30;;;4.00;99.90;;;;;;4955048;28;20493;-73
2022/01/12 05:15:01;;;;;;;51.15;26.10;;;4.00;99.90;;;;;;4953890;28;20042;-73
2022/01/12 05:17:29;;;;;;;51.80;27.55;;;4.00;99.90;;;;;;4937139;28;20038;-74
2022/01/12 05:19:56;;;;;;;48.97;26.83;;;4.00;99.90;;;;;;4953750;28;20030;-74
2022/01/12 05:22:23;;;;;;;48.60;25.17;;;4.00;99.90;;;;;;4936398;28;20127;-73
2022/01/12 05:24:50;;;;;;;55.33;26.70;;;4.00;99.90;;;;;;4936871;28;20406;-74
2022/01/12 05:27:16;;;;;;;44.80;25.50;;;4.00;99.90;;;;;;4952388;28;20369;-73
2022/01/12 05:29:43;;;;;;;46.22;25.00;;;4.00;99.90;;;;;;4953633;28;20035;-73
2022/01/12 05:32:10;;;;;;;55.85;27.77;;;4.00;99.90;;;;;;4950706;28;20043;-73
2022/01/12 05:34:38;;;;;;;52.58;28.13;;;4.00;99.90;;;;;;4950089;28;20674;-73
2022/01/12 05:37:05;;;;;;;50.50;27.13;;;4.00;99.90;;;;;;4948905;28;20486;-73
2022/01/12 05:39:33;;;;;;;57.30;27.95;;;4.00;99.90;;;;;;4931959;28;20090;-74
2022/01/12 05:42:00;;;;;;;55.58;29.40;;;4.00;99.90;;;;;;4946475;28;20394;-74
2022/01/12 05:44:27;;;;;;;58.25;29.23;;;4.10;99.90;;;;;;4930978;28;20506;-74
2022/01/12 05:46:54;;;;;;;56.30;28.65;;;4.10;99.90;;;;;;4951681;28;20030;-77
2022/01/12 05:49:34;;;;;;;63.95;27.98;;;4.10;99.90;;;;;;4952541;28;20026;-75
2022/01/12 05:52:01;;;;;;;52.78;25.25;;;4.10;99.90;;;;;;4948073;28;20049;-76
2022/01/12 05:54:28;;;;;;;60.45;28.20;;;4.10;99.90;;;;;;4935231;28;20054;-77
2022/01/12 05:56:55;;;;;;;59.30;27.33;;;4.10;99.90;;;;;;4951215;28;20031;-78
2022/01/12 05:59:22;;;;;;;52.67;28.73;;;4.10;99.90;;;;;;4935306;28;20064;-77
2022/01/12 06:01:49;;;;;;;61.00;25.65;;;4.00;99.90;;;;;;4952649;28;20031;-78
2022/01/12 06:04:16;;;;;;;52.95;27.40;;;4.10;99.90;;;;;;4949963;28;20022;-78
2022/01/12 06:06:43;;;;;;;55.88;26.20;;;4.10;99.90;;;;;;4952442;28;20482;-77
2022/01/12 06:09:10;;;;;;;59.75;26.85;;;4.10;99.90;;;;;;4953077;28;20497;-77
2022/01/12 06:11:37;;;;;;;70.60;26.27;;;4.10;99.90;;;;;;4934436;28;20027;-77
2022/01/12 06:14:05;;;;;;;60.15;26.45;;;4.10;99.90;;;;;;4947728;28;20039;-77
2022/01/12 06:16:33;;;;;;;52.40;24.90;;;4.10;99.90;;;;;;4952538;28;20038;-77
2022/01/12 06:19:00;;;;;;;54.13;25.65;;;4.10;99.90;;;;;;4935938;28;20470;-77
2022/01/12 06:21:30;;;;;;;62.65;27.80;;;4.10;99.90;;;;;;4953287;28;20058;-77
2022/01/12 06:24:02;;;;;;;62.65;26.75;;;4.10;99.90;;;;;;4949586;28;20024;-78
2022/01/12 06:26:28;;;;;;;53.13;25.42;;;4.10;99.90;;;;;;4954752;28;20094;-77
2022/01/12 06:31:43;;;;;;;62.70;25.35;;;4.10;99.90;;;;;;4954525;28;20031;-77
2022/01/12 06:34:09;;;;;;;63.58;24.02;;;4.10;99.90;;;;;;4933273;28;20031;-77
2022/01/12 06:36:36;;;;;;;106.20;25.10;;;4.10;99.90;;;;;;4953923;28;20474;-77
2022/01/12 06:39:09;;;;;;;74.43;25.15;;;4.20;99.90;;;;;;4935514;28;20039;-78
2022/01/12 06:41:38;;;;;;;77.78;24.27;;;4.20;99.90;;;;;;4951433;28;20057;-76
2022/01/12 06:44:08;;;;;;;63.65;24.83;;;4.20;99.90;;;;;;4948847;28;20516;-76
2022/01/12 06:46:36;;;;;;;65.80;25.10;;;4.20;99.90;;;;;;4953324;28;20028;-74
2022/01/12 06:49:03;;;;;;;59.63;24.50;;;4.20;99.90;;;;;;4937998;28;20026;-74
2022/01/12 06:51:30;;;;;;;87.43;27.77;;;4.20;99.90;;;;;;4936491;28;20026;-74
2022/01/12 06:53:58;;;;;;;74.18;25.92;;;4.20;99.90;;;;;;4932137;28;20378;-74
2022/01/12 06:56:25;;;;;;;65.45;25.20;;;4.20;99.90;;;;;;4952061;28;20027;-75
2022/01/12 06:58:55;;;;;;;77.05;24.85;;;4.20;99.90;;;;;;4953025;28;20031;-74
2022/01/12 07:01:24;;;;;;;79.53;25.15;;;4.20;99.90;;;;;;4953787;28;20382;-74
2022/01/12 07:03:51;;;;;;;71.38;24.50;;;4.30;99.90;;;;;;4950300;28;20495;-74
2022/01/12 07:06:18;;;;;;;77.43;25.55;;;4.20;99.90;;;;;;4952416;28;20345;-77
2022/01/12 07:08:45;;;;;;;62.78;25.27;;;4.30;99.90;;;;;;4951253;28;20023;-75
2022/01/12 07:11:22;;;;;;;79.95;24.65;;;4.20;99.90;;;;;;4952792;28;20501;-75
2022/01/12 07:13:52;;;;;;;56.30;22.60;;;4.30;99.90;;;;;;4933378;28;20031;-74
2022/01/12 07:16:18;;;;;;;88.40;26.20;;;4.20;99.90;;;;;;4952741;28;20041;-73
2022/01/12 07:18:45;;;;;;;64.60;26.40;;;4.30;99.90;;;;;;4937186;28;20039;-74
2022/01/12 07:21:12;;;;;;;101.70;45.72;;;4.20;99.90;;;;;;4951995;28;20039;-74
2022/01/12 07:23:38;;;;;;;75.47;31.88;;;4.20;99.90;;;;;;4918268;28;20046;-73
2022/01/12 07:26:07;;;;;;;62.45;27.38;;;4.20;99.90;;;;;;4950163;28;20062;-73
2022/01/12 07:28:33;;;;;;;81.43;27.77;;;4.20;99.90;;;;;;4953338;28;20022;-73
2022/01/12 07:30:59;;;;;;;66.90;24.50;;;4.20;99.90;;;;;;4954599;28;20370;-73
2022/01/12 07:33:26;;;;;;;62.60;22.10;;;4.20;99.90;;;;;;4947799;28;20484;-74
2022/01/12 07:35:53;;;;;;;63.75;23.83;;;4.20;99.90;;;;;;4950939;28;20027;-74
2022/01/12 07:38:20;;;;;;;63.70;22.13;;;4.20;99.90;;;;;;4952344;28;20023;-74
2022/01/12 07:40:46;;;;;;;64.32;22.60;;;4.10;99.90;;;;;;4953854;28;20418;-73
2022/01/12 07:43:13;;;;;;;62.75;21.67;;;4.10;99.90;;;;;;4947011;28;20047;-74
2022/01/12 07:45:39;;;;;;;66.50;20.80;;;4.20;99.90;;;;;;4946544;28;20018;-74
2022/01/12 07:48:05;;;;;;;64.72;20.45;;;4.10;99.90;;;;;;4935109;28;20733;-74
2022/01/12 07:50:32;;;;;;;62.20;19.90;;;4.20;99.90;;;;;;4952935;28;20031;-74
2022/01/12 07:52:58;;;;;;;64.07;21.77;;;4.20;99.90;;;;;;4944977;28;20034;-74
2022/01/12 07:55:25;;;;;;;67.67;22.13;;;4.20;99.90;;;;;;4951231;28;20037;-74
2022/01/12 07:57:53;;;;;;;66.30;23.50;;;4.20;99.90;;;;;;4951889;28;20364;-74
2022/01/12 08:00:22;;;;;;;68.90;20.85;;;4.20;99.90;;;;;;4950375;28;20475;-74
2022/01/12 08:02:50;;;;;;;65.78;21.08;;;4.20;99.90;;;;;;4946246;28;20042;-74
2022/01/12 08:05:18;;;;;;;58.95;19.58;;;4.20;99.90;;;;;;4950407;28;20019;-74
2022/01/12 08:07:45;;;;;;;64.50;20.35;;;4.20;99.90;;;;;;4949486;28;20027;-74
2022/01/12 08:10:11;;;;;;;61.08;20.27;;;4.30;99.90;;;;;;4952176;28;20018;-74
2022/01/12 08:12:38;;;;;;;67.53;21.30;;;4.30;99.90;;;;;;4947499;28;20506;-74
2022/01/12 08:15:06;;;;;;;76.22;23.33;;;4.30;99.90;;;;;;4950334;28;20046;-74
2022/01/12 08:17:34;;;;;;;72.93;25.38;;;4.30;99.90;;;;;;4950490;28;20035;-74
2022/01/12 08:20:03;;;;;;;76.10;25.30;;;4.30;99.90;;;;;;4951239;28;20034;-74
2022/01/12 08:22:29;;;;;;;72.22;24.90;;;4.30;99.90;;;;;;4947825;28;20028;-74
2022/01/12 08:24:56;;;;;;;65.32;22.23;;;4.30;99.90;;;;;;4947435;28;20028;-73
2022/01/12 08:27:23;;;;;;;71.50;24.15;;;4.30;99.90;;;;;;4947725;28;20374;-74
2022/01/12 08:29:51;;;;;;;69.32;23.48;;;4.30;99.90;;;;;;4952918;28;20471;-74
2022/01/12 08:32:17;;;;;;;68.97;21.60;;;4.30;99.90;;;;;;4948883;28;20046;-74
2022/01/12 08:34:43;;;;;;;59.25;22.67;;;4.30;99.90;;;;;;4950599;28;20035;-76
2022/01/12 08:37:10;;;;;;;74.15;27.85;;;4.30;99.90;;;;;;4917912;28;20047;-75
2022/01/12 08:39:36;;;;;;;68.63;25.42;;;4.30;99.90;;;;;;4950431;28;20053;-73
2022/01/12 08:42:03;;;;;;;67.10;26.73;;;4.30;99.90;;;;;;4948770;28;20054;-73
2022/01/12 08:44:29;;;;;;;64.93;25.77;;;4.30;99.90;;;;;;4949175;28;20028;-73
2022/01/12 08:46:56;;;;;;;67.07;25.35;;;4.30;99.90;;;;;;4950340;28;20028;-75
2022/01/12 08:49:22;;;;;;;64.13;24.73;;;4.30;99.90;;;;;;4950245;28;20023;-73
2022/01/12 08:51:49;;;;;;;61.88;24.63;;;4.30;99.90;;;;;;4917825;28;20034;-73
2022/01/12 08:54:15;;;;;;;60.92;24.45;;;4.30;99.90;;;;;;4948117;28;20022;-73
2022/01/12 08:56:42;;;;;;;60.50;25.13;;;4.30;99.90;;;;;;4951505;28;20045;-74
2022/01/12 08:59:08;;;;;;;54.97;22.38;;;4.40;99.90;;;;;;4955750;28;20035;-73
2022/01/12 09:01:34;;;;;;;55.60;22.00;;;4.40;99.90;;;;;;4956538;28;20030;-73
2022/01/12 09:04:01;;;;;;;57.63;22.02;;;4.40;99.90;;;;;;4949479;28;20030;-74
2022/01/12 09:06:27;;;;;;;56.92;21.50;;;4.40;99.90;;;;;;4951209;28;20023;-73
2022/01/12 09:08:54;;;;;;;58.10;22.70;;;4.50;99.90;;;;;;4953645;28;20027;-73
2022/01/12 09:11:20;;;;;;;64.10;24.50;;;4.50;99.90;;;;;;4955405;28;20470;-73
2022/01/12 09:13:47;;;;;;;60.45;24.65;;;4.50;99.90;;;;;;4953330;28;20027;-73
2022/01/12 09:16:14;;;;;;;53.78;22.08;;;4.40;99.90;;;;;;4954528;28;20026;-73
2022/01/12 09:18:43;;;;;;;58.08;22.90;;;4.50;99.90;;;;;;4955293;28;20035;-73
2022/01/12 09:21:10;;;;;;;61.30;24.10;;;4.50;99.90;;;;;;4955511;28;20027;-74
2022/01/12 09:23:36;;;;;;;57.78;23.63;;;4.50;99.90;;;;;;4950476;28;20042;-73
2022/01/12 09:26:03;;;;;;;55.65;22.20;;;4.50;99.90;;;;;;4955984;28;20501;-73
2022/01/12 09:28:31;;;;;;;57.50;23.92;;;4.60;99.90;;;;;;4952254;28;20035;-74
2022/01/12 09:30:57;;;;;;;63.35;24.58;;;4.50;99.90;;;;;;4953064;28;20027;-74
2022/01/12 09:33:24;;;;;;;53.78;22.55;;;4.50;99.90;;;;;;4952793;28;20031;-74
2022/01/12 09:35:53;;;;;;;49.58;23.27;;;4.60;99.90;;;;;;4952445;28;21067;-73
2022/01/12 09:38:20;;;;;;;51.40;21.67;;;4.60;99.90;;;;;;4971215;28;20030;-74
2022/01/12 09:40:51;;;;;;;54.78;24.35;;;4.60;99.90;;;;;;4953604;28;20030;-74
2022/01/12 09:43:18;;;;;;;57.33;23.98;;;4.70;99.90;;;;;;4949138;28;20043;-74
2022/01/12 09:45:49;;;;;;;54.63;23.15;;;4.70;99.90;;;;;;4953646;28;20019;-75
2022/01/12 09:48:19;;;;;;;53.72;23.42;;;4.70;99.90;;;;;;4954346;28;20501;-74
2022/01/12 09:50:46;;;;;;;51.20;21.30;;;4.70;99.90;;;;;;4952204;28;20103;-75
2022/01/12 09:53:12;;;;;;;57.55;22.10;;;4.80;99.90;;;;;;4935154;28;20022;-74
2022/01/12 09:55:39;;;;;;;55.85;21.08;;;4.80;99.90;;;;;;4953836;28;20040;-74
2022/01/12 09:58:05;;;;;;;53.88;21.90;;;4.80;99.90;;;;;;4956159;28;20389;-74
2022/01/12 10:00:33;;;;;;;52.28;20.83;;;4.90;99.90;;;;;;4954043;28;20027;-74
2022/01/12 10:03:09;;;;;;;49.63;20.92;;;5.00;99.90;;;;;;4948242;28;20039;-74
2022/01/12 10:05:36;;;;;;;45.40;20.75;;;5.00;99.90;;;;;;4952835;28;20019;-74
2022/01/12 10:08:13;;;;;;;58.50;21.48;;;5.00;99.90;;;;;;4935261;28;20031;-75
2022/01/12 10:10:47;;;;;;;49.38;20.73;;;5.00;99.90;;;;;;4951246;28;20038;-74
2022/01/12 10:13:23;;;;;;;50.47;20.77;;;4.90;99.90;;;;;;4950672;28;20038;-75
2022/01/12 10:15:53;;;;;;;53.55;21.00;;;5.00;99.90;;;;;;4953898;28;20019;-74
2022/01/12 10:18:22;;;;;;;50.53;20.80;;;5.00;99.90;;;;;;4951984;28;20030;-75
2022/01/12 10:20:50;;;;;;;52.70;21.92;;;5.10;99.90;;;;;;4953095;28;20482;-74
2022/01/12 10:23:20;;;;;;;52.53;21.70;;;5.10;99.90;;;;;;4949763;28;20035;-74
2022/01/12 10:25:47;;;;;;;50.38;21.25;;;5.10;99.90;;;;;;4953184;28;20023;-75
2022/01/12 10:28:20;;;;;;;46.40;21.48;;;5.10;99.90;;;;;;4954264;28;20366;-75
2022/01/12 10:31:02;;;;;;;47.65;19.70;;;5.20;99.90;;;;;;4936992;28;20303;-75
2022/01/12 10:33:33;;;;;;;42.83;20.35;;;5.30;99.90;;;;;;4930013;28;20035;-75
2022/01/12 10:36:02;;;;;;;45.22;18.98;;;5.30;99.90;;;;;;4949389;28;20030;-75
2022/01/12 10:38:29;;;;;;;53.17;19.67;;;5.40;99.90;;;;;;4953620;28;20023;-74
2022/01/12 10:41:02;;;;;;;40.80;18.20;;;5.40;99.90;;;;;;4952868;28;20035;-75
2022/01/12 10:43:37;;;;;;;46.00;19.95;;;5.40;99.90;;;;;;4950784;28;20038;-75
2022/01/12 10:46:11;;;;;;;45.70;19.95;;;5.40;99.90;;;;;;4936622;28;20027;-75
2022/01/12 10:48:38;;;;;;;41.92;19.75;;;5.40;99.90;;;;;;4952664;28;20042;-75
2022/01/12 10:51:05;;;;;;;47.80;19.52;;;5.50;99.90;;;;;;4951184;28;20027;-75
2022/01/12 10:53:33;;;;;;;51.03;23.55;;;5.50;99.90;;;;;;4931406;28;20022;-75
2022/01/12 10:56:12;;;;;;;41.95;20.65;;;5.50;99.90;;;;;;4951227;28;20374;-74
2022/01/12 10:58:41;;;;;;;48.20;20.70;;;5.40;99.90;;;;;;4955330;28;20030;-75
2022/01/12 11:01:09;;;;;;;44.90;19.92;;;5.50;99.90;;;;;;4953741;28;20023;-75
2022/01/12 11:03:37;;;;;;;42.83;19.23;;;5.50;99.90;;;;;;4948223;28;20041;-75
2022/01/12 11:06:05;;;;;;;45.17;20.20;;;5.60;99.90;;;;;;4935611;28;20074;-75
2022/01/12 11:08:33;;;;;;;37.55;18.40;;;5.60;99.90;;;;;;4951703;28;20054;-75
2022/01/12 11:11:00;;;;;;;49.60;20.80;;;5.60;99.90;;;;;;4936370;28;20019;-75
2022/01/12 11:13:28;;;;;;;44.25;21.30;;;5.60;99.90;;;;;;4943065;28;20031;-75
2022/01/12 11:15:56;;;;;;;49.25;19.25;;;5.70;99.90;;;;;;4950743;28;20022;-75
2022/01/12 11:18:27;;;;;;;43.58;19.15;;;5.70;99.90;;;;;;4952129;28;20038;-75
2022/01/12 11:20:59;;;;;;;42.97;20.90;;;5.70;99.90;;;;;;4954296;28;20467;-75
2022/01/12 11:23:33;;;;;;;;;;;5.70;99.90;;;;;;4949910;28;20045;-75
2022/01/12 11:26:10;;;;;;;49.40;20.27;;;5.70;99.90;;;;;;4947214;28;20312;-75
2022/01/12 11:28:38;;;;;;;42.42;18.75;;;5.70;99.90;;;;;;4951026;28;20022;-75
2022/01/12 11:31:05;;;;;;;44.88;18.98;;;5.70;99.90;;;;;;4952570;28;20478;-75
2022/01/12 11:33:31;;;;;;;49.97;19.42;;;5.70;99.90;;;;;;4930227;28;20035;-75
2022/01/12 11:36:04;;;;;;;41.70;19.23;;;5.70;99.90;;;;;;4950075;28;20506;-75
2022/01/12 11:38:35;;;;;;;40.53;19.48;;;5.70;99.90;;;;;;4951214;28;20025;-75
2022/01/12 11:41:12;;;;;;;41.00;19.67;;;5.70;99.90;;;;;;4954528;28;20462;-75
2022/01/12 11:43:47;;;;;;;37.35;18.05;;;5.70;99.90;;;;;;4946034;28;20039;-75
2022/01/12 11:46:17;;;;;;;39.20;18.17;;;5.80;99.90;;;;;;4947210;28;20042;-75
2022/01/12 11:48:49;;;;;;;37.75;19.08;;;5.90;99.90;;;;;;4934295;28;20480;-75
2022/01/12 11:51:18;;;;;;;36.92;18.13;;;5.90;99.90;;;;;;4954106;28;20022;-75
2022/01/12 11:53:53;;;;;;;43.78;19.25;;;6.00;99.90;;;;;;4947605;28;20039;-75
2022/01/12 11:56:22;;;;;;;41.08;20.42;;;6.00;99.90;;;;;;4952367;28;20513;-75
2022/01/12 11:58:57;;;;;;;41.03;19.90;;;6.00;99.90;;;;;;4949892;28;20061;-75
2022/01/12 12:01:34;;;;;;;47.95;20.38;;;6.00;99.90;;;;;;4968904;28;20027;-75
2022/01/12 12:04:04;;;;;;;43.45;19.63;;;6.00;99.90;;;;;;4949658;28;20580;-75
2022/01/12 12:06:31;;;;;;;40.03;18.80;;;6.00;99.90;;;;;;4933995;28;20034;-75
2022/01/12 12:09:05;;;;;;;38.95;17.52;;;6.00;99.90;;;;;;4951225;28;20050;-75
2022/01/12 12:11:33;;;;;;;47.15;20.67;;;6.00;99.90;;;;;;4953079;28;20023;-75
2022/01/12 12:14:07;;;;;;;44.67;18.77;;;6.00;99.90;;;;;;4949697;28;20814;-76
2022/01/12 12:16:35;;;;;;;42.47;19.50;;;6.10;99.90;;;;;;4955056;28;20406;-76
2022/01/12 12:19:03;;;;;;;38.53;18.65;;;6.20;99.90;;;;;;4936322;28;20027;-76
2022/01/12 12:21:31;;;;;;;40.42;18.15;;;6.20;99.90;;;;;;4950963;28;20039;-75
2022/01/12 12:24:13;;;;;;;40.90;18.50;;;6.30;99.90;;;;;;4948230;28;20034;-75
2022/01/12 12:26:48;;;;;;;43.92;18.38;;;6.30;99.90;;;;;;4950647;28;20030;-75
2022/01/12 12:29:17;;;;;;;39.28;18.88;;;6.40;99.90;;;;;;4934698;28;20027;-75
2022/01/12 12:31:47;;;;;;;42.63;18.25;;;6.40;99.90;;;;;;4953529;28;20027;-75
2022/01/12 12:34:14;;;;;;;45.17;20.23;;;6.40;99.90;;;;;;4951494;28;20022;-75
2022/01/12 12:36:41;;;;;;;42.30;19.90;;;6.40;99.90;;;;;;4956529;28;20031;-75
2022/01/12 12:39:12;;;;;;;45.22;19.05;;;6.40;99.90;;;;;;4956877;28;20038;-75
2022/01/12 12:41:40;;;;;;;45.00;20.15;;;6.40;99.90;;;;;;4954138;28;20053;-75
2022/01/12 12:44:19;;;;;;;40.13;18.35;;;6.40;99.90;;;;;;4952188;28;20039;-75
2022/01/12 12:46:48;;;;;;;41.53;19.98;;;6.40;99.90;;;;;;4957716;28;20011;-75
2022/01/12 12:49:14;;;;;;;51.53;23.15;;;6.50;99.90;;;;;;4955717;28;20026;-75
2022/01/12 12:51:41;;;;;;;48.30;21.73;;;6.50;99.90;;;;;;4938493;28;21404;-76
2022/01/12 12:54:07;;;;;;;39.38;18.92;;;6.60;99.90;;;;;;4949141;28;20465;-74
2022/01/12 12:56:41;;;;;;;48.08;20.75;;;6.60;99.90;;;;;;4956231;28;20054;-74
2022/01/12 12:59:08;;;;;;;47.50;20.63;;;6.60;99.90;;;;;;4937007;28;20031;-74
2022/01/12 13:01:36;;;;;;;47.92;20.33;;;6.60;99.90;;;;;;4936826;28;20045;-75
2022/01/12 13:04:03;;;;;;;42.58;19.35;;;6.60;99.90;;;;;;4950625;28;20026;-74
2022/01/12 13:06:35;;;;;;;40.47;18.80;;;6.60;99.90;;;;;;4938881;28;20502;-74
2022/01/12 13:09:07;;;;;;;39.63;17.60;;;6.60;99.90;;;;;;4951538;28;20263;-75
2022/01/12 13:11:37;;;;;;;31.55;15.18;;;6.40;99.90;;;;;;4955278;28;20375;-74
2022/01/12 13:14:10;;;;;;;34.90;16.65;;;6.40;99.90;;;;;;4932127;28;20034;-74
2022/01/12 13:16:52;;;;;;;38.90;17.48;;;6.30;99.90;;;;;;4956606;28;20502;-74
2022/01/12 13:21:07;;;;;;;39.22;19.38;;;6.20;99.90;;;;;;4955571;28;20022;-74
2022/01/12 13:22:37;;;;;;;38.00;18.58;;;6.20;99.90;;;;;;4951608;28;20031;-74
2022/01/12 13:25:10;;;;;;;41.38;19.35;;;6.10;99.90;;;;;;4951422;28;20019;-74
2022/01/12 13:27:38;;;;;;;40.40;17.65;;;6.00;99.90;;;;;;4951628;28;20034;-74
2022/01/12 13:30:07;;;;;;;39.13;17.70;;;6.10;99.90;;;;;;4953554;28;20019;-75
2022/01/12 13:32:34;;;;;;;41.75;19.38;;;6.10;99.90;;;;;;4932249;28;20054;-74
2022/01/12 13:35:04;;;;;;;37.33;18.50;;;6.20;99.90;;;;;;4952682;28;20024;-74
2022/01/12 13:37:31;;;;;;;40.65;18.45;;;6.30;99.90;;;;;;4952335;28;20022;-74
2022/01/12 13:40:05;;;;;;;40.92;19.95;;;6.30;99.90;;;;;;4936027;28;20348;-74
2022/01/12 13:42:31;;;;;;;41.63;19.00;;;6.30;99.90;;;;;;4949331;28;20030;-74
2022/01/12 13:45:08;;;;;;;40.65;18.42;;;6.30;99.90;;;;;;4949829;28;20023;-74
2022/01/12 13:47:36;;;;;;;38.75;18.63;;;6.20;99.90;;;;;;4971028;28;20019;-74
2022/01/12 13:50:09;;;;;;;41.97;18.73;;;6.20;99.90;;;;;;4955570;28;20031;-75
2022/01/12 13:52:37;;;;;;;42.65;19.38;;;6.10;99.90;;;;;;4950907;28;20033;-74
2022/01/12 13:55:11;;;;;;;36.55;16.88;;;6.10;99.90;;;;;;4953878;28;20021;-75
2022/01/12 13:57:38;;;;;;;39.35;17.85;;;6.00;99.90;;;;;;4951793;28;20484;-74
2022/01/12 14:00:09;;;;;;;33.63;16.42;;;5.80;99.90;;;;;;4933825;28;20370;-74
2022/01/12 14:02:45;;;;;;;36.28;16.17;;;5.80;99.90;;;;;;4949515;28;20130;-74
2022/01/12 14:05:18;;;;;;;36.53;17.75;;;5.80;99.90;;;;;;4952528;28;20043;-74
2022/01/12 14:07:59;;;;;;;36.05;16.40;;;5.80;99.90;;;;;;4953827;28;20478;-74
2022/01/12 14:10:27;;;;;;;39.90;17.65;;;5.90;99.90;;;;;;4952516;28;20354;-75